createdAt,value
2024-01-11T00:00:45.456Z,101351.42
2024-01-11T00:03:33.672Z,101348.19
2024-01-11T00:06:02.151Z,101343.77
2024-01-11T00:08:30.159Z,101338.20
2024-01-11T00:10:58.214Z,101324.10
2024-01-11T00:13:26.173Z,101311.91
2024-01-11T00:15:54.303Z,101312.00
2024-01-11T00:18:22.446Z,101306.79
2024-01-11T00:20:50.472Z,101295.36
2024-01-11T00:23:18.496Z,101289.98
2024-01-11T00:25:46.413Z,101295.48
2024-01-11T00:28:14.773Z,101293.49
2024-01-11T00:30:43.393Z,101295.59
2024-01-11T00:33:11.340Z,101298.96
2024-01-11T00:35:39.398Z,101302.47
2024-01-11T00:38:07.267Z,101298.63
2024-01-11T00:40:36.142Z,101302.12
2024-01-11T00:43:04.776Z,101302.11
2024-01-11T00:45:32.764Z,101308.91
2024-01-11T00:48:00.709Z,101311.80
2024-01-11T00:50:28.584Z,101314.23
2024-01-11T00:52:56.606Z,101311.77
2024-01-11T00:55:25.703Z,101306.52
2024-01-11T00:57:53.618Z,101326.84
2024-01-11T01:00:21.499Z,101332.90
2024-01-11T01:02:49.438Z,101337.84
2024-01-11T01:05:17.398Z,101329.23
2024-01-11T01:07:47.106Z,101319.35
2024-01-11T01:10:14.938Z,101306.95
2024-01-11T01:12:42.804Z,101296.49
2024-01-11T01:15:10.720Z,101288.48
2024-01-11T01:17:38.616Z,101287.81
2024-01-11T01:20:07.386Z,101295.41
2024-01-11T01:22:35.696Z,101299.52
2024-01-11T01:25:04.105Z,101297.46
2024-01-11T01:27:32.021Z,101302.37
2024-01-11T01:30:00.063Z,101303.54
2024-01-11T01:32:28.254Z,101310.61
2024-01-11T01:34:56.210Z,101304.70
2024-01-11T01:37:24.178Z,101301.33
2024-01-11T01:39:52.117Z,101307.44
2024-01-11T01:42:21.053Z,101308.61
2024-01-11T01:44:49.105Z,101312.59
2024-01-11T01:47:17.063Z,101301.80
2024-01-11T01:49:45.054Z,101288.29
2024-01-11T01:52:12.863Z,101297.21
2024-01-11T01:54:40.803Z,101290.34
2024-01-11T01:57:09.142Z,101291.95
2024-01-11T01:59:38.884Z,101287.92
2024-01-11T02:02:06.996Z,101275.16
2024-01-11T02:04:34.856Z,101278.98
2024-01-11T02:07:02.684Z,101281.09
2024-01-11T02:09:30.581Z,101291.31
2024-01-11T02:11:58.879Z,101289.58
2024-01-11T02:14:27.230Z,101289.55
2024-01-11T02:16:55.234Z,101286.23
2024-01-11T02:19:23.232Z,101284.48
2024-01-11T02:21:51.258Z,101290.09
2024-01-11T02:24:19.223Z,101276.65
2024-01-11T02:27:03.707Z,101273.23
2024-01-11T02:29:32.026Z,101286.29
2024-01-11T02:32:00.866Z,101275.55
2024-01-11T02:34:29.079Z,101270.73
2024-01-11T02:36:57.039Z,101271.95
2024-01-11T02:39:25.449Z,101264.34
2024-01-11T02:41:56.224Z,101274.08
2024-01-11T02:44:24.178Z,101277.62
2024-01-11T02:46:51.976Z,101276.27
2024-01-11T02:49:19.892Z,101258.04
2024-01-11T02:51:48.502Z,101250.72
2024-01-11T02:54:16.359Z,101248.13
2024-01-11T02:56:44.309Z,101249.30
2024-01-11T02:59:12.325Z,101259.08
2024-01-11T03:01:40.225Z,101257.66
2024-01-11T03:04:08.143Z,101265.30
2024-01-11T03:06:36.068Z,101269.38
2024-01-11T03:09:03.968Z,101280.90
2024-01-11T03:11:33.744Z,101276.00
2024-01-11T03:14:01.791Z,101265.13
2024-01-11T03:16:29.826Z,101258.48
2024-01-11T03:18:58.177Z,101246.80
2024-01-11T03:21:26.133Z,101253.69
2024-01-11T03:23:54.075Z,101260.52
2024-01-11T03:26:22.460Z,101236.56
2024-01-11T03:28:50.485Z,101243.23
2024-01-11T03:31:18.453Z,101251.59
2024-01-11T03:33:46.593Z,101248.84
2024-01-11T03:36:14.700Z,101227.66
2024-01-11T03:38:42.661Z,101215.81
2024-01-11T03:41:13.710Z,101222.36
2024-01-11T03:43:41.760Z,101205.49
2024-01-11T03:46:09.978Z,101195.98
2024-01-11T03:48:38.097Z,101190.05
2024-01-11T03:51:06.206Z,101179.59
2024-01-11T03:53:38.486Z,101179.01
2024-01-11T03:56:06.901Z,101173.92
2024-01-11T03:58:37.127Z,101173.52
2024-01-11T04:01:05.070Z,101163.40
2024-01-11T04:03:33.102Z,101155.96
2024-01-11T04:06:01.178Z,101140.35
2024-01-11T04:08:29.144Z,101144.20
2024-01-11T04:10:57.170Z,101156.83
2024-01-11T04:13:25.661Z,101165.05
2024-01-11T04:15:53.550Z,101166.77
2024-01-11T04:18:21.749Z,101160.77
2024-01-11T04:20:49.773Z,101163.59
2024-01-11T04:23:17.905Z,101156.13
2024-01-11T04:25:46.218Z,101152.90
2024-01-11T04:28:14.174Z,101151.92
2024-01-11T04:30:42.182Z,101154.80
2024-01-11T04:33:10.702Z,101163.50
2024-01-11T04:35:38.765Z,101157.40
2024-01-11T04:38:06.798Z,101162.09
2024-01-11T04:40:34.821Z,101163.54
2024-01-11T04:43:02.989Z,101153.79
2024-01-11T04:45:30.973Z,101157.36
2024-01-11T04:47:59.106Z,101162.95
2024-01-11T04:50:27.431Z,101156.48
2024-01-11T04:52:55.500Z,101150.47
2024-01-11T04:55:23.697Z,101146.00
2024-01-11T04:57:51.631Z,101151.92
2024-01-11T05:00:19.751Z,101153.27
2024-01-11T05:02:47.958Z,101160.71
2024-01-11T05:05:16.237Z,101170.35
2024-01-11T05:07:44.307Z,101156.15
2024-01-11T05:10:12.212Z,101154.19
2024-01-11T05:12:41.072Z,101153.21
2024-01-11T05:15:09.556Z,101151.94
2024-01-11T05:17:37.751Z,101149.18
2024-01-11T05:20:07.059Z,101133.86
2024-01-11T05:22:34.916Z,101136.42
2024-01-11T05:25:03.422Z,101137.84
2024-01-11T05:27:31.438Z,101130.92
2024-01-11T05:29:59.658Z,101116.84
2024-01-11T05:32:28.012Z,101110.52
2024-01-11T05:34:56.205Z,101104.88
2024-01-11T05:37:24.303Z,101112.17
2024-01-11T05:39:53.154Z,101102.15
2024-01-11T05:42:21.224Z,101100.49
2024-01-11T05:44:49.261Z,101094.55
2024-01-11T05:47:17.422Z,101092.27
2024-01-11T05:49:46.568Z,101101.55
2024-01-11T05:52:14.514Z,101094.56
2024-01-11T05:54:42.566Z,101085.82
2024-01-11T05:57:10.581Z,101077.65
2024-01-11T05:59:38.853Z,101079.73
2024-01-11T06:02:06.950Z,101076.73
2024-01-11T06:04:34.926Z,101072.52
2024-01-11T06:07:03.023Z,101058.91
2024-01-11T06:09:30.956Z,101058.59
2024-01-11T06:11:58.928Z,101063.64
2024-01-11T06:14:26.822Z,101058.98
2024-01-11T06:16:54.831Z,101051.70
2024-01-11T06:19:24.064Z,101056.77
2024-01-11T06:21:52.149Z,101052.52
2024-01-11T06:24:20.302Z,101053.82
2024-01-11T06:26:48.286Z,101049.68
2024-01-11T06:29:16.262Z,101044.83
2024-01-11T06:31:44.129Z,101044.19
2024-01-11T06:34:12.022Z,101048.96
2024-01-11T06:36:40.063Z,101044.32
2024-01-11T06:39:07.947Z,101039.44
2024-01-11T06:41:36.091Z,101028.36
2024-01-11T06:44:04.184Z,101031.13
2024-01-11T06:46:32.160Z,101031.15
2024-01-11T06:49:00.304Z,101031.67
2024-01-11T06:51:28.306Z,101022.48
2024-01-11T06:53:56.128Z,101014.71
2024-01-11T06:56:24.171Z,101012.28
2024-01-11T06:58:52.173Z,101018.55
2024-01-11T07:01:20.391Z,101017.84
2024-01-11T07:03:48.493Z,101015.02
2024-01-11T07:06:16.758Z,101013.73
2024-01-11T07:08:45.405Z,101008.42
2024-01-11T07:11:13.508Z,101018.76
2024-01-11T07:13:41.546Z,101016.69
2024-01-11T07:16:16.393Z,101017.86
2024-01-11T07:18:48.153Z,101027.43
2024-01-11T07:21:30.782Z,101022.80
2024-01-11T07:24:00.016Z,101005.48
2024-01-11T07:26:28.142Z,100994.85
2024-01-11T07:28:56.221Z,100996.19
2024-01-11T07:31:24.190Z,101005.83
2024-01-11T07:33:52.246Z,101009.00
2024-01-11T07:36:20.482Z,101007.75
2024-01-11T07:38:48.820Z,101012.35
2024-01-11T07:41:16.956Z,101012.88
2024-01-11T07:43:52.895Z,101007.09
2024-01-11T07:46:32.327Z,100993.70
2024-01-11T07:49:04.884Z,100983.31
2024-01-11T07:51:33.589Z,100993.29
2024-01-11T07:54:01.631Z,101000.77
2024-01-11T07:56:30.880Z,101002.55
2024-01-11T07:58:59.020Z,101007.13
2024-01-11T08:01:26.856Z,101016.23
2024-01-11T08:03:54.929Z,101006.67
2024-01-11T08:06:23.055Z,101009.13
2024-01-11T08:08:53.480Z,101015.58
2024-01-11T08:11:21.918Z,101022.48
2024-01-11T08:13:49.889Z,101016.70
2024-01-11T08:16:19.129Z,101018.91
2024-01-11T08:18:48.082Z,101018.31
2024-01-11T08:21:16.155Z,101018.10
2024-01-11T08:23:50.262Z,101021.02
2024-01-11T08:26:22.708Z,101025.65
2024-01-11T08:28:50.596Z,101022.92
2024-01-11T08:31:18.517Z,101018.48
2024-01-11T08:33:46.572Z,101017.66
2024-01-11T08:36:15.118Z,101017.06
2024-01-11T08:38:43.197Z,101023.60
2024-01-11T08:41:11.158Z,101032.66
2024-01-11T08:43:40.442Z,101031.85
2024-01-11T08:46:08.326Z,101036.13
2024-01-11T08:48:36.451Z,101031.70
2024-01-11T08:51:04.769Z,101032.48
2024-01-11T08:53:32.743Z,101044.55
2024-01-11T08:56:00.803Z,101042.05
2024-01-11T08:58:28.732Z,101031.51
2024-01-11T09:00:57.041Z,101028.87
2024-01-11T09:03:25.684Z,101026.41
2024-01-11T09:05:57.753Z,101024.54
2024-01-11T09:08:25.754Z,101018.59
2024-01-11T09:10:54.581Z,101017.86
2024-01-11T09:13:22.697Z,101020.48
2024-01-11T09:15:50.698Z,101018.59
2024-01-11T09:18:19.246Z,101010.54
2024-01-11T09:20:48.454Z,101010.60
2024-01-11T09:23:17.574Z,101005.92
2024-01-11T09:25:45.593Z,101000.95
2024-01-11T09:28:13.442Z,100994.11
2024-01-11T09:30:41.383Z,100992.16
2024-01-11T09:33:09.378Z,100990.91
2024-01-11T09:35:37.395Z,100988.73
2024-01-11T09:38:05.434Z,100974.75
2024-01-11T09:40:33.387Z,100968.58
2024-01-11T09:43:05.103Z,100966.20
2024-01-11T09:45:33.133Z,100970.15
2024-01-11T09:48:02.052Z,100969.14
2024-01-11T09:50:30.040Z,100959.98
2024-01-11T09:52:57.888Z,100948.23
2024-01-11T09:55:25.974Z,100952.46
2024-01-11T09:57:54.157Z,100947.81
2024-01-11T10:00:23.878Z,100946.88
2024-01-11T10:02:53.286Z,100945.54
2024-01-11T10:05:21.399Z,100943.15
2024-01-11T10:07:49.297Z,100941.86
2024-01-11T10:10:17.283Z,100938.95
2024-01-11T10:12:45.250Z,100927.46
2024-01-11T10:15:14.701Z,100925.65
2024-01-11T10:17:45.558Z,100930.27
2024-01-11T10:20:18.291Z,100925.96
2024-01-11T10:22:47.218Z,100918.73
2024-01-11T10:25:16.481Z,100918.59
2024-01-11T10:27:45.363Z,100918.90
2024-01-11T10:30:18.024Z,100922.81
2024-01-11T10:32:47.317Z,100926.88
2024-01-11T10:35:15.467Z,100929.13
2024-01-11T10:37:43.892Z,100933.59
2024-01-11T10:40:13.759Z,100935.02
2024-01-11T10:42:46.376Z,100927.39
2024-01-11T10:45:18.196Z,100926.36
2024-01-11T10:48:01.641Z,100928.63
2024-01-11T10:50:35.824Z,100928.09
2024-01-11T10:53:25.447Z,100927.95
2024-01-11T10:55:53.311Z,100923.39
2024-01-11T10:58:22.202Z,100918.70
2024-01-11T11:00:51.159Z,100917.71
2024-01-11T11:03:19.302Z,100911.10
2024-01-11T11:05:49.345Z,100915.43
2024-01-11T11:08:17.472Z,100915.54
2024-01-11T11:10:45.353Z,100906.83
2024-01-11T11:13:13.625Z,100904.11
2024-01-11T11:15:42.994Z,100893.82
2024-01-11T11:18:11.116Z,100892.40
2024-01-11T11:20:39.202Z,100892.44
2024-01-11T11:23:07.731Z,100886.44
2024-01-11T11:25:35.803Z,100881.45
2024-01-11T11:28:05.928Z,100886.65
2024-01-11T11:30:37.599Z,100887.28
2024-01-11T11:33:12.904Z,100895.16
2024-01-11T11:35:41.086Z,100886.55
2024-01-11T11:38:09.333Z,100882.55
2024-01-11T11:40:40.184Z,100880.34
2024-01-11T11:43:08.229Z,100872.54
2024-01-11T11:45:36.692Z,100867.71
2024-01-11T11:48:31.442Z,100864.16
2024-01-11T11:51:20.628Z,100856.45
2024-01-11T11:53:49.923Z,100852.94
2024-01-11T11:56:24.458Z,100848.77
2024-01-11T11:58:54.351Z,100842.19
2024-01-11T12:01:22.397Z,100848.20
2024-01-11T12:03:50.763Z,100839.57
2024-01-11T12:06:20.408Z,100837.15
2024-01-11T12:08:49.006Z,100839.70
2024-01-11T12:11:21.050Z,100835.39
2024-01-11T12:13:49.680Z,100843.38
2024-01-11T12:16:17.922Z,100842.37
2024-01-11T12:18:46.010Z,100840.72
2024-01-11T12:21:13.913Z,100836.80
2024-01-11T12:23:43.236Z,100832.28
2024-01-11T12:26:15.192Z,100834.41
2024-01-11T12:28:45.562Z,100828.34
2024-01-11T12:31:14.061Z,100821.42
2024-01-11T12:33:43.061Z,100817.05
2024-01-11T12:36:11.473Z,100821.78
2024-01-11T12:38:40.722Z,100830.59
2024-01-11T12:41:08.646Z,100820.20
2024-01-11T12:43:36.556Z,100822.42
2024-01-11T12:46:05.277Z,100825.80
2024-01-11T12:48:33.508Z,100831.12
2024-01-11T12:51:10.742Z,100832.02
2024-01-11T12:53:50.181Z,100828.24
2024-01-11T12:56:18.446Z,100842.23
2024-01-11T12:58:48.290Z,100838.86
2024-01-11T13:01:16.577Z,100831.23
2024-01-11T13:03:45.905Z,100830.02
2024-01-11T13:06:14.774Z,100824.55
2024-01-11T13:08:43.753Z,100820.67
2024-01-11T13:11:15.057Z,100817.98
2024-01-11T13:13:43.347Z,100814.00
2024-01-11T13:16:15.401Z,100811.21
2024-01-11T13:18:43.733Z,100806.78
2024-01-11T13:21:13.757Z,100802.79
2024-01-11T13:23:41.923Z,100802.94
2024-01-11T13:26:10.106Z,100804.27
2024-01-11T13:28:38.020Z,100806.83
2024-01-11T13:31:06.097Z,100802.70
2024-01-11T13:33:34.227Z,100807.85
2024-01-11T13:36:02.552Z,100815.16
2024-01-11T13:38:30.581Z,100822.14
2024-01-11T13:40:58.508Z,100814.34
2024-01-11T13:43:26.338Z,100816.65
2024-01-11T13:45:55.710Z,100816.59
2024-01-11T13:48:23.689Z,100809.65
2024-01-11T13:50:51.720Z,100806.92
2024-01-11T13:53:19.812Z,100803.52
2024-01-11T13:55:48.123Z,100794.75
2024-01-11T13:58:16.668Z,100786.58
2024-01-11T14:00:45.490Z,100787.79
2024-01-11T14:03:13.701Z,100784.61
2024-01-11T14:05:42.891Z,100777.58
2024-01-11T14:08:10.923Z,100767.00
2024-01-11T14:10:38.820Z,100761.98
2024-01-11T14:13:06.786Z,100759.92
2024-01-11T14:15:34.787Z,100757.80
2024-01-11T14:18:03.145Z,100761.54
2024-01-11T14:20:32.162Z,100770.13
2024-01-11T14:23:00.300Z,100771.76
2024-01-11T14:25:28.348Z,100767.23
2024-01-11T14:27:57.339Z,100766.73
2024-01-11T14:30:25.490Z,100768.30
2024-01-11T14:32:54.524Z,100773.86
2024-01-11T14:35:22.834Z,100776.93
2024-01-11T14:37:51.561Z,100781.14
2024-01-11T14:40:19.612Z,100782.51
2024-01-11T14:42:47.516Z,100783.65
2024-01-11T14:45:15.388Z,100785.08
2024-01-11T14:47:43.484Z,100775.47
2024-01-11T14:50:12.666Z,100775.88
2024-01-11T14:52:40.901Z,100768.41
2024-01-11T14:55:11.103Z,100772.80
2024-01-11T14:57:40.583Z,100779.59
2024-01-11T15:00:09.666Z,100788.90
2024-01-11T15:02:37.885Z,100792.50
2024-01-11T15:05:06.551Z,100801.93
2024-01-11T15:07:34.836Z,100804.02
2024-01-11T15:10:03.815Z,100801.20
2024-01-11T15:12:32.133Z,100801.33
2024-01-11T15:15:00.321Z,100802.55
2024-01-11T15:17:29.302Z,100800.20
2024-01-11T15:19:57.786Z,100795.65
2024-01-11T15:22:25.880Z,100801.44
2024-01-11T15:24:55.014Z,100800.08
2024-01-11T15:27:23.289Z,100804.25
2024-01-11T15:29:54.592Z,100802.33
2024-01-11T15:32:23.925Z,100805.65
2024-01-11T15:34:54.222Z,100801.16
2024-01-11T15:37:24.283Z,100803.48
2024-01-11T15:39:52.393Z,100807.93
2024-01-11T15:42:20.530Z,100805.55
2024-01-11T15:44:49.341Z,100805.18
2024-01-11T15:47:17.830Z,100805.52
2024-01-11T15:49:46.189Z,100808.65
2024-01-11T15:52:14.556Z,100816.10
2024-01-11T15:54:42.838Z,100822.20
2024-01-11T15:57:11.108Z,100817.07
2024-01-11T15:59:39.436Z,100815.92
2024-01-11T16:02:08.250Z,100813.64
2024-01-11T16:04:39.400Z,100816.77
2024-01-11T16:07:07.617Z,100811.64
2024-01-11T16:09:35.704Z,100811.54
2024-01-11T16:12:05.901Z,100812.08
2024-01-11T16:14:35.298Z,100814.81
2024-01-11T16:17:03.962Z,100820.25
2024-01-11T16:19:34.628Z,100812.23
2024-01-11T16:22:04.511Z,100810.84
2024-01-11T16:24:32.779Z,100808.95
2024-01-11T16:27:00.931Z,100810.48
2024-01-11T16:29:29.105Z,100815.15
2024-01-11T16:31:57.362Z,100819.05
2024-01-11T16:34:25.653Z,100815.50
2024-01-11T16:36:53.942Z,100812.40
2024-01-11T16:39:22.258Z,100813.77
2024-01-11T16:41:52.509Z,100814.00
2024-01-11T16:44:20.817Z,100815.80
2024-01-11T16:46:49.148Z,100812.21
2024-01-11T16:49:17.464Z,100811.59
2024-01-11T16:51:49.395Z,100816.33
2024-01-11T16:54:19.902Z,100813.17
2024-01-11T16:56:49.002Z,100817.62
2024-01-11T16:59:19.402Z,100823.64
2024-01-11T17:01:48.186Z,100825.83
2024-01-11T17:04:16.765Z,100831.16
2024-01-11T17:06:47.337Z,100830.57
2024-01-11T17:09:15.675Z,100833.53
2024-01-11T17:11:44.276Z,100836.88
2024-01-11T17:14:12.886Z,100835.58
2024-01-11T17:16:42.550Z,100832.92
2024-01-11T17:19:14.870Z,100836.64
2024-01-11T17:21:44.406Z,100838.90
2024-01-11T17:24:15.226Z,100838.57
2024-01-11T17:26:43.514Z,100833.80
2024-01-11T17:29:15.856Z,100832.14
2024-01-11T17:31:46.143Z,100838.88
2024-01-11T17:34:15.851Z,100840.90
2024-01-11T17:36:44.677Z,100842.54
2024-01-11T17:39:13.197Z,100840.67
2024-01-11T17:41:43.452Z,100845.77
2024-01-11T17:44:16.554Z,100851.05
2024-01-11T17:46:47.792Z,100850.55
2024-01-11T17:49:19.303Z,100852.30
2024-01-11T17:51:51.401Z,100855.73
2024-01-11T17:54:21.067Z,100858.34
2024-01-11T17:56:52.174Z,100869.45
2024-01-11T17:59:20.979Z,100868.42
2024-01-11T18:01:49.929Z,100867.36
2024-01-11T18:04:22.370Z,100870.52
2024-01-11T18:06:51.417Z,100871.48
2024-01-11T18:09:23.467Z,100874.29
2024-01-11T18:11:53.112Z,100875.07
2024-01-11T18:14:21.916Z,100882.16
2024-01-11T18:16:52.499Z,100890.62
2024-01-11T18:19:21.900Z,100887.89
2024-01-11T18:21:54.276Z,100885.20
2024-01-11T18:24:24.487Z,100888.14
2024-01-11T18:26:57.260Z,100885.98
2024-01-11T18:29:32.259Z,100884.14
2024-01-11T18:32:01.376Z,100880.94
2024-01-11T18:34:36.516Z,100878.49
2024-01-11T18:37:10.786Z,100885.14
2024-01-11T18:39:44.870Z,100885.61
2024-01-11T18:42:17.739Z,100886.35
2024-01-11T18:44:49.220Z,100885.77
2024-01-11T18:47:25.536Z,100897.92
2024-01-11T18:49:57.303Z,100899.17
2024-01-11T18:52:36.348Z,100899.14
2024-01-11T18:55:16.559Z,100897.25
2024-01-11T18:57:49.531Z,100893.85
2024-01-11T19:00:24.037Z,100892.13
2024-01-11T19:02:55.685Z,100895.95
2024-01-11T19:05:28.297Z,100904.78
2024-01-11T19:08:02.402Z,100907.43
2024-01-11T19:10:33.619Z,100904.39
2024-01-11T19:15:55.431Z,100907.30
2024-01-11T19:18:29.992Z,100908.77
2024-01-11T19:21:05.420Z,100917.14
2024-01-11T19:23:40.072Z,100924.73
2024-01-11T19:26:17.271Z,100927.39
2024-01-11T19:28:52.771Z,100927.96
2024-01-11T19:31:28.143Z,100929.05
2024-01-11T19:33:59.630Z,100929.86
2024-01-11T19:36:34.355Z,100940.07
2024-01-11T19:39:13.138Z,100949.73
2024-01-11T19:41:45.123Z,100957.61
2024-01-11T19:44:17.797Z,100963.40
2024-01-11T19:46:50.381Z,100967.64
2024-01-11T19:49:22.820Z,100970.37
2024-01-11T19:51:55.433Z,100977.50
2024-01-11T19:54:35.384Z,100983.48
2024-01-11T19:57:07.262Z,100987.95
2024-01-11T19:59:40.962Z,100992.15
2024-01-11T20:02:13.825Z,100994.02
2024-01-11T20:04:47.695Z,100999.66
2024-01-11T20:07:25.798Z,101001.05
2024-01-11T20:09:57.633Z,101003.66
2024-01-11T20:12:30.913Z,101006.22
2024-01-11T20:15:01.851Z,101011.41
2024-01-11T20:17:37.132Z,101018.70
2024-01-11T20:20:18.779Z,101021.34
2024-01-11T20:23:01.367Z,101023.61
2024-01-11T20:25:33.918Z,101029.42
2024-01-11T20:28:13.305Z,101037.45
2024-01-11T20:30:45.097Z,101040.12
2024-01-11T20:33:19.556Z,101039.20
2024-01-11T20:35:57.435Z,101039.48
2024-01-11T20:38:43.072Z,101037.64
2024-01-11T20:41:20.364Z,101035.95
2024-01-11T20:43:54.616Z,101044.08
2024-01-11T20:46:24.968Z,101042.46
2024-01-11T20:48:56.600Z,101052.34
2024-01-11T20:51:29.775Z,101055.00
2024-01-11T20:54:10.427Z,101050.08
2024-01-11T20:56:46.964Z,101051.02
2024-01-11T20:59:20.883Z,101052.77
2024-01-11T21:01:59.339Z,101066.41
2024-01-11T21:04:36.300Z,101068.91
2024-01-11T21:07:11.902Z,101074.31
2024-01-11T21:09:40.690Z,101082.34
2024-01-11T21:12:12.131Z,101078.21
2024-01-11T21:14:44.793Z,101082.60
2024-01-11T21:17:22.931Z,101084.89
2024-01-11T21:20:04.383Z,101089.52
2024-01-11T21:22:35.960Z,101094.80
2024-01-11T21:25:08.379Z,101093.58
2024-01-11T21:27:48.749Z,101100.61
2024-01-11T21:30:31.535Z,101110.14
2024-01-11T21:33:00.742Z,101106.52
2024-01-11T21:35:31.835Z,101117.04
2024-01-11T21:38:00.224Z,101119.91
2024-01-11T21:40:32.503Z,101125.21
2024-01-11T21:43:07.701Z,101126.52
2024-01-11T21:45:39.910Z,101136.92
2024-01-11T21:48:08.251Z,101141.37
2024-01-11T21:50:38.136Z,101141.98
2024-01-11T21:53:08.506Z,101146.04
2024-01-11T21:55:41.900Z,101144.73
2024-01-11T21:58:12.549Z,101147.88
2024-01-11T22:00:41.199Z,101141.62
2024-01-11T22:03:11.380Z,101145.16
2024-01-11T22:05:40.614Z,101153.52
2024-01-11T22:08:11.173Z,101147.31
2024-01-11T22:10:39.403Z,101151.66
2024-01-11T22:13:07.530Z,101152.94
2024-01-11T22:15:36.229Z,101153.65
2024-01-11T22:18:07.570Z,101154.40
2024-01-11T22:20:36.539Z,101157.23
2024-01-11T22:23:07.309Z,101163.05
2024-01-11T22:25:35.865Z,101169.14
2024-01-11T22:28:04.499Z,101160.69
2024-01-11T22:30:32.817Z,101170.38
2024-01-11T22:33:03.377Z,101165.27
2024-01-11T22:35:31.690Z,101164.04
2024-01-11T22:38:00.357Z,101173.71
2024-01-11T22:40:28.514Z,101179.68
2024-01-11T22:42:56.822Z,101184.70
2024-01-11T22:45:25.132Z,101183.65
2024-01-11T22:47:53.705Z,101188.80
2024-01-11T22:50:22.539Z,101196.81
2024-01-11T22:52:50.978Z,101203.17
2024-01-11T22:55:18.886Z,101200.15
2024-01-11T22:57:46.916Z,101202.35
2024-01-11T23:00:26.778Z,101203.73
2024-01-11T23:02:54.995Z,101204.75
2024-01-11T23:05:23.289Z,101213.83
2024-01-11T23:07:51.350Z,101211.61
2024-01-11T23:10:20.090Z,101211.36
2024-01-11T23:12:48.236Z,101223.23
2024-01-11T23:15:16.178Z,101222.83
2024-01-11T23:17:44.369Z,101222.71
2024-01-11T23:20:12.914Z,101229.35
2024-01-11T23:22:40.951Z,101229.39
2024-01-11T23:25:09.242Z,101230.27
2024-01-11T23:27:37.239Z,101233.02
2024-01-11T23:30:05.595Z,101223.54
2024-01-11T23:32:33.903Z,101219.00
2024-01-11T23:35:02.315Z,101230.89
2024-01-11T23:37:30.173Z,101240.23
2024-01-11T23:39:58.075Z,101244.21
2024-01-11T23:42:26.236Z,101244.21
2024-01-11T23:44:54.629Z,101250.55
2024-01-11T23:47:22.723Z,101249.89
2024-01-11T23:49:51.021Z,101249.77
2024-01-11T23:52:19.428Z,101247.63
2024-01-11T23:54:47.422Z,101250.83
2024-01-11T23:57:15.359Z,101250.54
2024-01-11T23:59:44.061Z,101259.15
